sensor_id;sensor_type;location;lat;lon;timestamp;temperature;humidity
33271;DHT22;53180;51.344;6.152;2022-11-30T00:01:34;7.20;95.80
33271;DHT22;53180;51.344;6.152;2022-11-30T00:04:04;7.20;95.80
33271;DHT22;53180;51.344;6.152;2022-11-30T00:06:32;7.20;95.80
33271;DHT22;53180;51.344;6.152;2022-11-30T00:09:01;7.20;95.80
33271;DHT22;53180;51.344;6.152;2022-11-30T00:11:29;7.20;95.80
33271;DHT22;53180;51.344;6.152;2022-11-30T00:13:58;7.20;95.80
33271;DHT22;53180;51.344;6.152;2022-11-30T00:16:27;7.20;95.80
33271;DHT22;53180;51.344;6.152;2022-11-30T00:18:55;7.20;95.80
33271;DHT22;53180;51.344;6.152;2022-11-30T00:21:25;7.20;95.80
33271;DHT22;53180;51.344;6.152;2022-11-30T00:23:53;7.20;95.90
33271;DHT22;53180;51.344;6.152;2022-11-30T00:26:21;7.20;95.90
33271;DHT22;53180;51.344;6.152;2022-11-30T00:28:50;7.20;95.90
33271;DHT22;53180;51.344;6.152;2022-11-30T00:31:18;7.20;95.90
33271;DHT22;53180;51.344;6.152;2022-11-30T00:33:47;7.20;95.90
33271;DHT22;53180;51.344;6.152;2022-11-30T00:36:16;7.20;95.90
33271;DHT22;53180;51.344;6.152;2022-11-30T00:38:48;7.20;95.90
33271;DHT22;53180;51.344;6.152;2022-11-30T00:41:18;7.20;95.90
33271;DHT22;53180;51.344;6.152;2022-11-30T00:43:47;7.20;95.90
33271;DHT22;53180;51.344;6.152;2022-11-30T00:46:15;7.20;96.00
33271;DHT22;53180;51.344;6.152;2022-11-30T00:48:44;7.20;96.00
33271;DHT22;53180;51.344;6.152;2022-11-30T00:51:12;7.20;96.00
33271;DHT22;53180;51.344;6.152;2022-11-30T00:53:41;7.30;96.00
33271;DHT22;53180;51.344;6.152;2022-11-30T00:56:10;7.30;96.00
33271;DHT22;53180;51.344;6.152;2022-11-30T00:58:39;7.20;96.00
33271;DHT22;53180;51.344;6.152;2022-11-30T01:01:08;7.30;96.00
33271;DHT22;53180;51.344;6.152;2022-11-30T01:03:36;7.30;96.00
33271;DHT22;53180;51.344;6.152;2022-11-30T01:06:07;7.30;96.00
33271;DHT22;53180;51.344;6.152;2022-11-30T01:08:36;7.30;96.00
33271;DHT22;53180;51.344;6.152;2022-11-30T01:11:06;7.30;96.00
33271;DHT22;53180;51.344;6.152;2022-11-30T01:13:37;7.30;96.10
33271;DHT22;53180;51.344;6.152;2022-11-30T01:16:10;7.30;96.10
33271;DHT22;53180;51.344;6.152;2022-11-30T01:18:39;7.30;96.10
33271;DHT22;53180;51.344;6.152;2022-11-30T01:21:09;7.30;96.10
33271;DHT22;53180;51.344;6.152;2022-11-30T01:23:39;7.30;96.10
33271;DHT22;53180;51.344;6.152;2022-11-30T01:26:07;7.30;96.10
33271;DHT22;53180;51.344;6.152;2022-11-30T01:28:37;7.30;96.10
33271;DHT22;53180;51.344;6.152;2022-11-30T01:31:09;7.30;96.10
33271;DHT22;53180;51.344;6.152;2022-11-30T01:33:38;7.30;96.10
33271;DHT22;53180;51.344;6.152;2022-11-30T01:36:11;7.30;96.10
33271;DHT22;53180;51.344;6.152;2022-11-30T01:38:43;7.30;96.10
33271;DHT22;53180;51.344;6.152;2022-11-30T01:41:16;7.30;96.20
33271;DHT22;53180;51.344;6.152;2022-11-30T01:43:49;7.40;96.20
33271;DHT22;53180;51.344;6.152;2022-11-30T01:46:32;7.40;96.20
33271;DHT22;53180;51.344;6.152;2022-11-30T01:49:13;7.40;96.20
33271;DHT22;53180;51.344;6.152;2022-11-30T01:51:46;7.30;96.20
33271;DHT22;53180;51.344;6.152;2022-11-30T01:54:20;7.40;96.20
33271;DHT22;53180;51.344;6.152;2022-11-30T01:56:55;7.40;96.20
33271;DHT22;53180;51.344;6.152;2022-11-30T01:59:27;7.40;96.20
33271;DHT22;53180;51.344;6.152;2022-11-30T02:01:58;7.40;96.20
33271;DHT22;53180;51.344;6.152;2022-11-30T02:04:29;7.30;96.20
33271;DHT22;53180;51.344;6.152;2022-11-30T02:06:59;7.40;96.20
33271;DHT22;53180;51.344;6.152;2022-11-30T02:09:30;7.40;96.20
33271;DHT22;53180;51.344;6.152;2022-11-30T02:11:59;7.40;96.20
33271;DHT22;53180;51.344;6.152;2022-11-30T02:14:33;7.40;96.20
33271;DHT22;53180;51.344;6.152;2022-11-30T02:17:10;7.40;96.20
33271;DHT22;53180;51.344;6.152;2022-11-30T02:20:19;7.40;96.20
33271;DHT22;53180;51.344;6.152;2022-11-30T02:23:08;7.40;96.20
33271;DHT22;53180;51.344;6.152;2022-11-30T02:25:55;7.40;96.20
33271;DHT22;53180;51.344;6.152;2022-11-30T02:29:08;7.40;96.20
33271;DHT22;53180;51.344;6.152;2022-11-30T02:31:45;7.40;96.20
33271;DHT22;53180;51.344;6.152;2022-11-30T02:34:19;7.40;96.20
33271;DHT22;53180;51.344;6.152;2022-11-30T02:36:48;7.40;96.20
33271;DHT22;53180;51.344;6.152;2022-11-30T02:39:19;7.30;96.10
33271;DHT22;53180;51.344;6.152;2022-11-30T02:41:48;7.30;96.10
33271;DHT22;53180;51.344;6.152;2022-11-30T02:44:19;7.30;96.10
33271;DHT22;53180;51.344;6.152;2022-11-30T02:47:14;7.30;96.10
33271;DHT22;53180;51.344;6.152;2022-11-30T02:49:51;7.30;96.00
33271;DHT22;53180;51.344;6.152;2022-11-30T02:52:23;7.30;96.00
33271;DHT22;53180;51.344;6.152;2022-11-30T02:54:58;7.20;95.90
33271;DHT22;53180;51.344;6.152;2022-11-30T02:57:27;7.20;95.90
33271;DHT22;53180;51.344;6.152;2022-11-30T02:59:58;7.30;95.90
33271;DHT22;53180;51.344;6.152;2022-11-30T03:02:28;7.30;95.80
33271;DHT22;53180;51.344;6.152;2022-11-30T03:04:56;7.30;95.90
33271;DHT22;53180;51.344;6.152;2022-11-30T03:07:24;7.20;95.80
33271;DHT22;53180;51.344;6.152;2022-11-30T03:09:52;7.20;95.80
33271;DHT22;53180;51.344;6.152;2022-11-30T03:12:21;7.20;95.70
33271;DHT22;53180;51.344;6.152;2022-11-30T03:14:49;7.20;95.70
33271;DHT22;53180;51.344;6.152;2022-11-30T03:17:19;7.10;95.60
33271;DHT22;53180;51.344;6.152;2022-11-30T03:19:47;7.00;95.50
33271;DHT22;53180;51.344;6.152;2022-11-30T03:22:16;7.10;95.50
33271;DHT22;53180;51.344;6.152;2022-11-30T03:24:44;7.10;95.40
33271;DHT22;53180;51.344;6.152;2022-11-30T03:27:13;7.10;95.40
33271;DHT22;53180;51.344;6.152;2022-11-30T03:29:41;7.00;95.30
33271;DHT22;53180;51.344;6.152;2022-11-30T03:32:09;7.00;95.30
33271;DHT22;53180;51.344;6.152;2022-11-30T03:34:39;7.00;95.20
33271;DHT22;53180;51.344;6.152;2022-11-30T03:37:07;7.00;95.20
33271;DHT22;53180;51.344;6.152;2022-11-30T03:39:36;6.90;95.30
33271;DHT22;53180;51.344;6.152;2022-11-30T03:42:04;6.90;95.20
33271;DHT22;53180;51.344;6.152;2022-11-30T03:44:33;6.90;95.20
33271;DHT22;53180;51.344;6.152;2022-11-30T03:47:01;6.80;95.20
33271;DHT22;53180;51.344;6.152;2022-11-30T03:49:29;6.90;95.20
33271;DHT22;53180;51.344;6.152;2022-11-30T03:51:59;6.80;95.10
33271;DHT22;53180;51.344;6.152;2022-11-30T03:54:27;6.80;95.10
33271;DHT22;53180;51.344;6.152;2022-11-30T03:56:55;6.80;95.10
33271;DHT22;53180;51.344;6.152;2022-11-30T03:59:24;6.80;95.10
33271;DHT22;53180;51.344;6.152;2022-11-30T04:01:52;6.80;95.10
33271;DHT22;53180;51.344;6.152;2022-11-30T04:04:20;6.70;95.10
33271;DHT22;53180;51.344;6.152;2022-11-30T04:06:49;6.80;95.10
33271;DHT22;53180;51.344;6.152;2022-11-30T04:09:18;6.80;95.10
33271;DHT22;53180;51.344;6.152;2022-11-30T04:11:47;6.70;95.10
33271;DHT22;53180;51.344;6.152;2022-11-30T04:14:15;6.70;95.10
33271;DHT22;53180;51.344;6.152;2022-11-30T04:16:43;6.70;95.10
33271;DHT22;53180;51.344;6.152;2022-11-30T04:19:12;6.70;95.10
33271;DHT22;53180;51.344;6.152;2022-11-30T04:21:40;6.70;95.10
33271;DHT22;53180;51.344;6.152;2022-11-30T04:24:08;6.60;95.10
33271;DHT22;53180;51.344;6.152;2022-11-30T04:26:38;6.60;95.10
33271;DHT22;53180;51.344;6.152;2022-11-30T04:29:06;6.60;95.10
33271;DHT22;53180;51.344;6.152;2022-11-30T04:31:35;6.60;95.10
33271;DHT22;53180;51.344;6.152;2022-11-30T04:34:03;6.60;95.10
33271;DHT22;53180;51.344;6.152;2022-11-30T04:36:31;6.50;95.20
33271;DHT22;53180;51.344;6.152;2022-11-30T04:39:00;6.50;95.20
33271;DHT22;53180;51.344;6.152;2022-11-30T04:41:28;6.50;95.30
33271;DHT22;53180;51.344;6.152;2022-11-30T04:43:58;6.50;95.20
33271;DHT22;53180;51.344;6.152;2022-11-30T04:46:26;6.50;95.30
33271;DHT22;53180;51.344;6.152;2022-11-30T04:48:55;6.50;95.30
33271;DHT22;53180;51.344;6.152;2022-11-30T04:51:23;6.50;95.30
33271;DHT22;53180;51.344;6.152;2022-11-30T04:53:51;6.40;95.20
33271;DHT22;53180;51.344;6.152;2022-11-30T04:56:20;6.50;95.30
33271;DHT22;53180;51.344;6.152;2022-11-30T04:58:48;6.50;95.30
33271;DHT22;53180;51.344;6.152;2022-11-30T05:01:18;6.50;95.30
33271;DHT22;53180;51.344;6.152;2022-11-30T05:03:46;6.50;95.30
33271;DHT22;53180;51.344;6.152;2022-11-30T05:06:15;6.50;95.40
33271;DHT22;53180;51.344;6.152;2022-11-30T05:08:43;6.50;95.40
33271;DHT22;53180;51.344;6.152;2022-11-30T05:11:11;6.50;95.40
33271;DHT22;53180;51.344;6.152;2022-11-30T05:13:39;6.50;95.40
33271;DHT22;53180;51.344;6.152;2022-11-30T05:16:08;6.50;95.40
33271;DHT22;53180;51.344;6.152;2022-11-30T05:18:38;6.50;95.40
33271;DHT22;53180;51.344;6.152;2022-11-30T05:21:06;6.40;95.40
33271;DHT22;53180;51.344;6.152;2022-11-30T05:23:36;6.50;95.40
33271;DHT22;53180;51.344;6.152;2022-11-30T05:26:04;6.50;95.40
33271;DHT22;53180;51.344;6.152;2022-11-30T05:28:33;6.40;95.30
33271;DHT22;53180;51.344;6.152;2022-11-30T05:31:03;6.30;95.30
33271;DHT22;53180;51.344;6.152;2022-11-30T05:33:32;6.30;95.30
33271;DHT22;53180;51.344;6.152;2022-11-30T05:36:02;6.30;95.30
33271;DHT22;53180;51.344;6.152;2022-11-30T05:38:36;6.30;95.30
33271;DHT22;53180;51.344;6.152;2022-11-30T05:41:04;6.30;95.30
33271;DHT22;53180;51.344;6.152;2022-11-30T05:43:33;6.30;95.30
33271;DHT22;53180;51.344;6.152;2022-11-30T05:46:04;6.30;95.30
33271;DHT22;53180;51.344;6.152;2022-11-30T05:48:33;6.20;95.30
33271;DHT22;53180;51.344;6.152;2022-11-30T05:51:08;6.20;95.20
33271;DHT22;53180;51.344;6.152;2022-11-30T05:53:37;6.10;95.20
33271;DHT22;53180;51.344;6.152;2022-11-30T05:56:08;6.10;95.20
33271;DHT22;53180;51.344;6.152;2022-11-30T05:58:38;6.00;95.10
33271;DHT22;53180;51.344;6.152;2022-11-30T06:01:07;5.90;95.00
33271;DHT22;53180;51.344;6.152;2022-11-30T06:03:35;5.90;94.90
33271;DHT22;53180;51.344;6.152;2022-11-30T06:06:04;5.80;94.90
33271;DHT22;53180;51.344;6.152;2022-11-30T06:08:34;5.70;94.70
33271;DHT22;53180;51.344;6.152;2022-11-30T06:11:02;5.50;94.50
33271;DHT22;53180;51.344;6.152;2022-11-30T06:13:30;5.40;94.50
33271;DHT22;53180;51.344;6.152;2022-11-30T06:15:59;5.50;94.60
33271;DHT22;53180;51.344;6.152;2022-11-30T06:18:28;5.40;94.60
33271;DHT22;53180;51.344;6.152;2022-11-30T06:20:59;5.30;94.50
33271;DHT22;53180;51.344;6.152;2022-11-30T06:23:30;5.20;94.50
33271;DHT22;53180;51.344;6.152;2022-11-30T06:26:02;5.10;94.20
33271;DHT22;53180;51.344;6.152;2022-11-30T06:28:31;5.00;94.20
33271;DHT22;53180;51.344;6.152;2022-11-30T06:31:01;5.00;94.30
33271;DHT22;53180;51.344;6.152;2022-11-30T06:33:31;4.90;94.20
33271;DHT22;53180;51.344;6.152;2022-11-30T06:36:00;5.00;94.30
33271;DHT22;53180;51.344;6.152;2022-11-30T06:38:30;4.80;94.10
33271;DHT22;53180;51.344;6.152;2022-11-30T06:41:03;4.70;94.00
33271;DHT22;53180;51.344;6.152;2022-11-30T06:43:33;4.50;93.90
33271;DHT22;53180;51.344;6.152;2022-11-30T06:46:02;4.30;93.80
33271;DHT22;53180;51.344;6.152;2022-11-30T06:48:31;4.30;93.80
33271;DHT22;53180;51.344;6.152;2022-11-30T06:51:00;4.20;93.80
33271;DHT22;53180;51.344;6.152;2022-11-30T06:53:33;4.10;93.80
33271;DHT22;53180;51.344;6.152;2022-11-30T06:56:03;3.90;93.80
33271;DHT22;53180;51.344;6.152;2022-11-30T06:58:36;3.90;93.90
33271;DHT22;53180;51.344;6.152;2022-11-30T07:01:05;3.90;94.00
33271;DHT22;53180;51.344;6.152;2022-11-30T07:03:35;3.90;94.00
33271;DHT22;53180;51.344;6.152;2022-11-30T07:06:06;3.90;94.00
33271;DHT22;53180;51.344;6.152;2022-11-30T07:08:38;3.80;94.00
33271;DHT22;53180;51.344;6.152;2022-11-30T07:11:08;3.80;94.10
33271;DHT22;53180;51.344;6.152;2022-11-30T07:13:37;3.80;94.20
33271;DHT22;53180;51.344;6.152;2022-11-30T07:16:07;3.80;94.20
33271;DHT22;53180;51.344;6.152;2022-11-30T07:18:37;3.80;94.30
33271;DHT22;53180;51.344;6.152;2022-11-30T07:21:05;3.80;94.40
33271;DHT22;53180;51.344;6.152;2022-11-30T07:23:34;3.80;94.50
33271;DHT22;53180;51.344;6.152;2022-11-30T07:26:24;3.80;94.50
33271;DHT22;53180;51.344;6.152;2022-11-30T07:28:53;3.50;94.20
33271;DHT22;53180;51.344;6.152;2022-11-30T07:31:26;3.50;94.20
33271;DHT22;53180;51.344;6.152;2022-11-30T07:33:57;3.60;94.30
33271;DHT22;53180;51.344;6.152;2022-11-30T07:36:26;3.50;94.00
33271;DHT22;53180;51.344;6.152;2022-11-30T07:38:56;3.30;93.90
33271;DHT22;53180;51.344;6.152;2022-11-30T07:41:25;3.20;93.90
33271;DHT22;53180;51.344;6.152;2022-11-30T07:43:54;3.20;93.90
33271;DHT22;53180;51.344;6.152;2022-11-30T07:46:22;3.10;94.00
33271;DHT22;53180;51.344;6.152;2022-11-30T07:48:50;3.20;94.20
33271;DHT22;53180;51.344;6.152;2022-11-30T07:51:20;3.20;94.30
33271;DHT22;53180;51.344;6.152;2022-11-30T07:53:49;3.20;94.40
33271;DHT22;53180;51.344;6.152;2022-11-30T07:56:18;3.20;94.40
33271;DHT22;53180;51.344;6.152;2022-11-30T07:58:50;3.10;94.50
33271;DHT22;53180;51.344;6.152;2022-11-30T08:01:21;3.10;94.60
33271;DHT22;53180;51.344;6.152;2022-11-30T08:03:51;3.20;94.70
33271;DHT22;53180;51.344;6.152;2022-11-30T08:06:21;3.20;94.80
33271;DHT22;53180;51.344;6.152;2022-11-30T08:08:52;3.30;94.90
33271;DHT22;53180;51.344;6.152;2022-11-30T08:11:22;3.30;95.00
33271;DHT22;53180;51.344;6.152;2022-11-30T08:13:53;3.30;95.00
33271;DHT22;53180;51.344;6.152;2022-11-30T08:16:24;3.30;95.10
33271;DHT22;53180;51.344;6.152;2022-11-30T08:18:54;3.30;95.10
33271;DHT22;53180;51.344;6.152;2022-11-30T08:21:23;3.30;95.10
33271;DHT22;53180;51.344;6.152;2022-11-30T08:23:53;3.30;95.20
33271;DHT22;53180;51.344;6.152;2022-11-30T08:26:24;3.40;95.40
33271;DHT22;53180;51.344;6.152;2022-11-30T08:28:55;3.50;95.40
33271;DHT22;53180;51.344;6.152;2022-11-30T08:31:26;3.60;95.40
33271;DHT22;53180;51.344;6.152;2022-11-30T08:33:56;3.60;95.40
33271;DHT22;53180;51.344;6.152;2022-11-30T08:36:27;3.60;95.50
33271;DHT22;53180;51.344;6.152;2022-11-30T08:38:57;3.60;95.50
33271;DHT22;53180;51.344;6.152;2022-11-30T08:41:26;3.60;95.50
33271;DHT22;53180;51.344;6.152;2022-11-30T08:43:56;3.70;95.60
33271;DHT22;53180;51.344;6.152;2022-11-30T08:46:24;3.70;95.60
33271;DHT22;53180;51.344;6.152;2022-11-30T08:49:13;3.80;95.60
33271;DHT22;53180;51.344;6.152;2022-11-30T08:51:52;3.80;95.60
33271;DHT22;53180;51.344;6.152;2022-11-30T08:54:41;3.90;95.60
33271;DHT22;53180;51.344;6.152;2022-11-30T08:57:11;4.00;95.70
33271;DHT22;53180;51.344;6.152;2022-11-30T08:59:41;4.10;95.80
33271;DHT22;53180;51.344;6.152;2022-11-30T09:02:10;4.20;95.90
33271;DHT22;53180;51.344;6.152;2022-11-30T09:04:42;4.20;95.90
33271;DHT22;53180;51.344;6.152;2022-11-30T09:07:11;4.40;95.90
33271;DHT22;53180;51.344;6.152;2022-11-30T09:09:39;4.50;95.90
33271;DHT22;53180;51.344;6.152;2022-11-30T09:12:07;4.60;96.00
33271;DHT22;53180;51.344;6.152;2022-11-30T09:14:36;4.70;96.00
33271;DHT22;53180;51.344;6.152;2022-11-30T09:17:05;4.80;96.10
33271;DHT22;53180;51.344;6.152;2022-11-30T09:19:34;4.90;96.10
33271;DHT22;53180;51.344;6.152;2022-11-30T09:22:02;5.00;96.10
33271;DHT22;53180;51.344;6.152;2022-11-30T09:24:31;5.00;96.20
33271;DHT22;53180;51.344;6.152;2022-11-30T09:26:59;5.10;96.20
33271;DHT22;53180;51.344;6.152;2022-11-30T09:29:27;5.20;96.20
33271;DHT22;53180;51.344;6.152;2022-11-30T09:31:56;5.30;96.20
33271;DHT22;53180;51.344;6.152;2022-11-30T09:34:26;5.30;96.20
33271;DHT22;53180;51.344;6.152;2022-11-30T09:36:54;5.40;96.20
33271;DHT22;53180;51.344;6.152;2022-11-30T09:39:22;5.50;96.20
33271;DHT22;53180;51.344;6.152;2022-11-30T09:42:15;5.40;96.20
33271;DHT22;53180;51.344;6.152;2022-11-30T09:45:00;5.50;96.20
33271;DHT22;53180;51.344;6.152;2022-11-30T09:48:01;5.60;96.20
33271;DHT22;53180;51.344;6.152;2022-11-30T09:50:47;5.70;96.20
33271;DHT22;53180;51.344;6.152;2022-11-30T09:53:20;5.80;96.30
33271;DHT22;53180;51.344;6.152;2022-11-30T09:55:55;5.80;96.20
33271;DHT22;53180;51.344;6.152;2022-11-30T09:58:32;5.90;96.20
33271;DHT22;53180;51.344;6.152;2022-11-30T10:01:11;5.90;96.20
33271;DHT22;53180;51.344;6.152;2022-11-30T10:03:44;6.00;96.20
33271;DHT22;53180;51.344;6.152;2022-11-30T10:06:20;6.10;96.20
33271;DHT22;53180;51.344;6.152;2022-11-30T10:09:03;6.10;96.20
33271;DHT22;53180;51.344;6.152;2022-11-30T10:11:45;6.20;96.20
33271;DHT22;53180;51.344;6.152;2022-11-30T10:14:39;6.30;96.20
33271;DHT22;53180;51.344;6.152;2022-11-30T10:17:24;6.30;96.20
33271;DHT22;53180;51.344;6.152;2022-11-30T10:20:13;6.40;96.10
33271;DHT22;53180;51.344;6.152;2022-11-30T10:23:11;6.50;96.10
33271;DHT22;53180;51.344;6.152;2022-11-30T10:25:54;6.50;96.10
33271;DHT22;53180;51.344;6.152;2022-11-30T10:28:33;6.60;96.00
33271;DHT22;53180;51.344;6.152;2022-11-30T10:31:16;6.60;95.90
33271;DHT22;53180;51.344;6.152;2022-11-30T10:33:47;6.70;95.90
33271;DHT22;53180;51.344;6.152;2022-11-30T10:36:24;6.70;95.80
33271;DHT22;53180;51.344;6.152;2022-11-30T10:38:59;6.70;95.70
33271;DHT22;53180;51.344;6.152;2022-11-30T10:41:32;6.80;95.50
33271;DHT22;53180;51.344;6.152;2022-11-30T10:44:05;6.90;95.50
33271;DHT22;53180;51.344;6.152;2022-11-30T10:46:42;6.90;95.40
33271;DHT22;53180;51.344;6.152;2022-11-30T10:49:17;6.90;95.30
33271;DHT22;53180;51.344;6.152;2022-11-30T10:51:51;6.90;95.10
33271;DHT22;53180;51.344;6.152;2022-11-30T10:54:22;6.90;95.10
33271;DHT22;53180;51.344;6.152;2022-11-30T10:56:51;6.90;94.80
33271;DHT22;53180;51.344;6.152;2022-11-30T10:59:23;7.00;94.80
33271;DHT22;53180;51.344;6.152;2022-11-30T11:01:53;7.00;94.60
33271;DHT22;53180;51.344;6.152;2022-11-30T11:04:23;7.00;94.40
33271;DHT22;53180;51.344;6.152;2022-11-30T11:06:55;7.00;94.40
33271;DHT22;53180;51.344;6.152;2022-11-30T11:09:36;7.00;94.40
33271;DHT22;53180;51.344;6.152;2022-11-30T11:12:14;7.10;94.40
33271;DHT22;53180;51.344;6.152;2022-11-30T11:14:43;7.00;94.30
33271;DHT22;53180;51.344;6.152;2022-11-30T11:17:23;7.00;94.20
33271;DHT22;53180;51.344;6.152;2022-11-30T11:19:52;7.00;94.10
33271;DHT22;53180;51.344;6.152;2022-11-30T11:22:22;7.00;93.90
33271;DHT22;53180;51.344;6.152;2022-11-30T11:25:06;7.00;93.90
33271;DHT22;53180;51.344;6.152;2022-11-30T11:27:37;7.00;94.10
33271;DHT22;53180;51.344;6.152;2022-11-30T11:30:15;7.00;94.00
33271;DHT22;53180;51.344;6.152;2022-11-30T11:32:57;6.90;93.80
33271;DHT22;53180;51.344;6.152;2022-11-30T11:35:33;7.00;93.80
33271;DHT22;53180;51.344;6.152;2022-11-30T11:38:07;6.90;93.80
33271;DHT22;53180;51.344;6.152;2022-11-30T11:40:55;7.00;93.80
33271;DHT22;53180;51.344;6.152;2022-11-30T11:43:28;6.90;93.60
33271;DHT22;53180;51.344;6.152;2022-11-30T11:46:00;6.90;93.50
33271;DHT22;53180;51.344;6.152;2022-11-30T11:48:32;7.00;93.40
33271;DHT22;53180;51.344;6.152;2022-11-30T11:51:04;7.00;93.50
33271;DHT22;53180;51.344;6.152;2022-11-30T11:53:43;7.00;93.60
33271;DHT22;53180;51.344;6.152;2022-11-30T11:56:24;7.00;93.80
33271;DHT22;53180;51.344;6.152;2022-11-30T11:58:57;7.10;93.70
33271;DHT22;53180;51.344;6.152;2022-11-30T12:01:38;7.00;93.30
33271;DHT22;53180;51.344;6.152;2022-11-30T12:04:36;7.10;93.30
33271;DHT22;53180;51.344;6.152;2022-11-30T12:07:18;7.20;93.30
33271;DHT22;53180;51.344;6.152;2022-11-30T12:09:53;7.20;93.70
33271;DHT22;53180;51.344;6.152;2022-11-30T12:12:28;7.20;93.50
33271;DHT22;53180;51.344;6.152;2022-11-30T12:14:56;7.20;93.30
33271;DHT22;53180;51.344;6.152;2022-11-30T12:17:38;7.20;93.00
33271;DHT22;53180;51.344;6.152;2022-11-30T12:20:20;7.30;92.90
33271;DHT22;53180;51.344;6.152;2022-11-30T12:23:17;7.30;93.10
33271;DHT22;53180;51.344;6.152;2022-11-30T12:26:03;7.30;92.80
33271;DHT22;53180;51.344;6.152;2022-11-30T12:28:39;7.30;92.40
33271;DHT22;53180;51.344;6.152;2022-11-30T12:31:14;7.30;92.70
33271;DHT22;53180;51.344;6.152;2022-11-30T12:33:57;7.30;92.90
33271;DHT22;53180;51.344;6.152;2022-11-30T12:36:42;7.30;92.40
33271;DHT22;53180;51.344;6.152;2022-11-30T12:39:23;7.30;92.50
33271;DHT22;53180;51.344;6.152;2022-11-30T12:41:59;7.30;92.10
33271;DHT22;53180;51.344;6.152;2022-11-30T12:44:42;7.20;91.80
33271;DHT22;53180;51.344;6.152;2022-11-30T12:47:32;7.20;91.70
33271;DHT22;53180;51.344;6.152;2022-11-30T12:50:21;7.20;91.50
33271;DHT22;53180;51.344;6.152;2022-11-30T12:53:05;7.20;91.60
33271;DHT22;53180;51.344;6.152;2022-11-30T12:55:45;7.20;91.60
33271;DHT22;53180;51.344;6.152;2022-11-30T12:58:24;7.10;91.40
33271;DHT22;53180;51.344;6.152;2022-11-30T13:01:10;7.20;92.10
33271;DHT22;53180;51.344;6.152;2022-11-30T13:03:49;7.20;91.90
33271;DHT22;53180;51.344;6.152;2022-11-30T13:06:26;7.20;91.50
33271;DHT22;53180;51.344;6.152;2022-11-30T13:09:00;7.20;91.50
33271;DHT22;53180;51.344;6.152;2022-11-30T13:11:35;7.20;91.40
33271;DHT22;53180;51.344;6.152;2022-11-30T13:14:10;7.20;91.80
33271;DHT22;53180;51.344;6.152;2022-11-30T13:16:42;7.20;92.20
33271;DHT22;53180;51.344;6.152;2022-11-30T13:19:36;7.20;91.70
33271;DHT22;53180;51.344;6.152;2022-11-30T13:22:18;7.20;91.80
33271;DHT22;53180;51.344;6.152;2022-11-30T13:24:57;7.20;91.80
33271;DHT22;53180;51.344;6.152;2022-11-30T13:27:31;7.20;91.90
33271;DHT22;53180;51.344;6.152;2022-11-30T13:30:18;7.20;91.10
33271;DHT22;53180;51.344;6.152;2022-11-30T13:32:50;7.20;91.00
33271;DHT22;53180;51.344;6.152;2022-11-30T13:35:40;7.20;91.00
33271;DHT22;53180;51.344;6.152;2022-11-30T13:38:15;7.20;91.10
33271;DHT22;53180;51.344;6.152;2022-11-30T13:41:04;7.10;90.90
33271;DHT22;53180;51.344;6.152;2022-11-30T13:43:35;7.20;91.30
33271;DHT22;53180;51.344;6.152;2022-11-30T13:46:13;7.10;90.80
33271;DHT22;53180;51.344;6.152;2022-11-30T13:48:45;7.20;90.50
33271;DHT22;53180;51.344;6.152;2022-11-30T13:51:33;7.20;89.90
33271;DHT22;53180;51.344;6.152;2022-11-30T13:54:35;7.20;90.60
33271;DHT22;53180;51.344;6.152;2022-11-30T14:00:45;7.30;90.00
33271;DHT22;53180;51.344;6.152;2022-11-30T14:03:22;7.30;90.40
33271;DHT22;53180;51.344;6.152;2022-11-30T14:05:54;7.50;90.60
33271;DHT22;53180;51.344;6.152;2022-11-30T14:08:35;7.50;91.10
33271;DHT22;53180;51.344;6.152;2022-11-30T14:11:36;7.50;90.90
33271;DHT22;53180;51.344;6.152;2022-11-30T14:14:41;7.60;90.30
33271;DHT22;53180;51.344;6.152;2022-11-30T14:17:20;7.60;90.00
33271;DHT22;53180;51.344;6.152;2022-11-30T14:19:52;7.60;90.70
33271;DHT22;53180;51.344;6.152;2022-11-30T14:22:28;7.50;90.80
33271;DHT22;53180;51.344;6.152;2022-11-30T14:24:57;7.50;90.80
33271;DHT22;53180;51.344;6.152;2022-11-30T14:27:28;7.50;90.80
33271;DHT22;53180;51.344;6.152;2022-11-30T14:30:01;7.50;90.50
33271;DHT22;53180;51.344;6.152;2022-11-30T14:32:36;7.40;90.40
33271;DHT22;53180;51.344;6.152;2022-11-30T14:35:10;7.50;90.90
33271;DHT22;53180;51.344;6.152;2022-11-30T14:37:50;7.40;90.10
33271;DHT22;53180;51.344;6.152;2022-11-30T14:40:24;7.40;90.20
33271;DHT22;53180;51.344;6.152;2022-11-30T14:42:55;7.40;90.40
33271;DHT22;53180;51.344;6.152;2022-11-30T14:45:26;7.30;90.30
33271;DHT22;53180;51.344;6.152;2022-11-30T14:48:05;7.30;90.20
33271;DHT22;53180;51.344;6.152;2022-11-30T14:50:34;7.30;90.30
33271;DHT22;53180;51.344;6.152;2022-11-30T14:53:16;7.30;90.70
33271;DHT22;53180;51.344;6.152;2022-11-30T14:55:51;7.20;90.50
33271;DHT22;53180;51.344;6.152;2022-11-30T14:58:29;7.20;90.50
33271;DHT22;53180;51.344;6.152;2022-11-30T15:01:15;7.20;90.60
33271;DHT22;53180;51.344;6.152;2022-11-30T15:03:46;7.20;90.80
33271;DHT22;53180;51.344;6.152;2022-11-30T15:06:17;7.20;90.70
33271;DHT22;53180;51.344;6.152;2022-11-30T15:08:51;7.20;90.70
33271;DHT22;53180;51.344;6.152;2022-11-30T15:11:21;7.20;90.60
33271;DHT22;53180;51.344;6.152;2022-11-30T15:13:51;7.20;90.60
33271;DHT22;53180;51.344;6.152;2022-11-30T15:16:26;7.20;90.70
33271;DHT22;53180;51.344;6.152;2022-11-30T15:18:57;7.20;90.60
33271;DHT22;53180;51.344;6.152;2022-11-30T15:21:27;7.10;90.50
33271;DHT22;53180;51.344;6.152;2022-11-30T15:23:59;7.10;90.80
33271;DHT22;53180;51.344;6.152;2022-11-30T15:26:30;7.10;90.80
33271;DHT22;53180;51.344;6.152;2022-11-30T15:29:03;7.10;90.80
33271;DHT22;53180;51.344;6.152;2022-11-30T15:31:34;7.10;90.50
33271;DHT22;53180;51.344;6.152;2022-11-30T15:34:06;7.10;90.50
33271;DHT22;53180;51.344;6.152;2022-11-30T15:36:44;7.10;90.60
33271;DHT22;53180;51.344;6.152;2022-11-30T15:39:27;7.10;90.80
33271;DHT22;53180;51.344;6.152;2022-11-30T15:41:58;7.10;91.10
33271;DHT22;53180;51.344;6.152;2022-11-30T15:44:38;7.10;91.20
33271;DHT22;53180;51.344;6.152;2022-11-30T15:47:23;7.10;91.40
33271;DHT22;53180;51.344;6.152;2022-11-30T15:49:53;7.10;91.10
33271;DHT22;53180;51.344;6.152;2022-11-30T15:52:26;7.10;91.20
33271;DHT22;53180;51.344;6.152;2022-11-30T15:54:57;7.00;91.00
33271;DHT22;53180;51.344;6.152;2022-11-30T15:57:58;7.00;90.80
33271;DHT22;53180;51.344;6.152;2022-11-30T16:00:27;7.10;90.80
33271;DHT22;53180;51.344;6.152;2022-11-30T16:03:07;7.10;91.10
33271;DHT22;53180;51.344;6.152;2022-11-30T16:05:36;7.10;91.10
33271;DHT22;53180;51.344;6.152;2022-11-30T16:08:13;7.10;91.00
33271;DHT22;53180;51.344;6.152;2022-11-30T16:10:43;7.00;91.10
33271;DHT22;53180;51.344;6.152;2022-11-30T16:13:12;7.00;90.80
33271;DHT22;53180;51.344;6.152;2022-11-30T16:15:44;7.10;91.00
33271;DHT22;53180;51.344;6.152;2022-11-30T16:18:15;7.00;91.20
33271;DHT22;53180;51.344;6.152;2022-11-30T16:20:47;7.00;91.00
33271;DHT22;53180;51.344;6.152;2022-11-30T16:23:16;7.00;91.00
33271;DHT22;53180;51.344;6.152;2022-11-30T16:25:47;7.00;90.90
33271;DHT22;53180;51.344;6.152;2022-11-30T16:28:17;7.00;91.20